sensor_id;sensor_type;location;lat;lon;timestamp;P1;durP1;ratioP1;P2;durP2;ratioP2
51838;SDS011;37886;53.174;6.368;2023-03-14T00:02:05;37.13;;;8.55;;
51838;SDS011;37886;53.174;6.368;2023-03-14T00:04:30;44.65;;;9.38;;
51838;SDS011;37886;53.174;6.368;2023-03-14T00:06:56;41.30;;;10.05;;
51838;SDS011;37886;53.174;6.368;2023-03-14T00:09:22;48.20;;;10.50;;
51838;SDS011;37886;53.174;6.368;2023-03-14T00:11:48;43.25;;;9.75;;
51838;SDS011;37886;53.174;6.368;2023-03-14T00:14:13;36.13;;;8.95;;
51838;SDS011;37886;53.174;6.368;2023-03-14T00:16:40;42.72;;;10.05;;
51838;SDS011;37886;53.174;6.368;2023-03-14T00:19:06;36.22;;;9.30;;
51838;SDS011;37886;53.174;6.368;2023-03-14T00:21:32;41.80;;;8.90;;
51838;SDS011;37886;53.174;6.368;2023-03-14T00:23:57;35.58;;;8.75;;
51838;SDS011;37886;53.174;6.368;2023-03-14T00:26:23;35.95;;;12.27;;
51838;SDS011;37886;53.174;6.368;2023-03-14T00:28:52;46.28;;;9.60;;
51838;SDS011;37886;53.174;6.368;2023-03-14T00:31:19;42.10;;;11.88;;
51838;SDS011;37886;53.174;6.368;2023-03-14T00:33:44;34.05;;;9.02;;
51838;SDS011;37886;53.174;6.368;2023-03-14T00:36:15;31.30;;;8.85;;
51838;SDS011;37886;53.174;6.368;2023-03-14T00:38:42;33.00;;;9.13;;
51838;SDS011;37886;53.174;6.368;2023-03-14T00:41:09;36.55;;;9.57;;
51838;SDS011;37886;53.174;6.368;2023-03-14T00:43:37;39.25;;;8.85;;
51838;SDS011;37886;53.174;6.368;2023-03-14T00:46:03;33.15;;;8.27;;
51838;SDS011;37886;53.174;6.368;2023-03-14T00:48:33;32.60;;;8.40;;
51838;SDS011;37886;53.174;6.368;2023-03-14T00:50:58;31.48;;;9.02;;
51838;SDS011;37886;53.174;6.368;2023-03-14T00:53:24;41.63;;;8.70;;
51838;SDS011;37886;53.174;6.368;2023-03-14T00:55:50;33.28;;;8.75;;
51838;SDS011;37886;53.174;6.368;2023-03-14T00:58:16;41.33;;;8.27;;
51838;SDS011;37886;53.174;6.368;2023-03-14T01:00:43;33.65;;;8.60;;
51838;SDS011;37886;53.174;6.368;2023-03-14T01:03:10;36.83;;;8.45;;
51838;SDS011;37886;53.174;6.368;2023-03-14T01:05:36;35.60;;;7.90;;
51838;SDS011;37886;53.174;6.368;2023-03-14T01:08:03;32.95;;;8.52;;
51838;SDS011;37886;53.174;6.368;2023-03-14T01:10:29;35.28;;;7.80;;
51838;SDS011;37886;53.174;6.368;2023-03-14T01:12:55;27.65;;;9.43;;
51838;SDS011;37886;53.174;6.368;2023-03-14T01:15:21;32.53;;;9.35;;
51838;SDS011;37886;53.174;6.368;2023-03-14T01:17:47;28.05;;;7.35;;
51838;SDS011;37886;53.174;6.368;2023-03-14T01:20:13;31.70;;;8.05;;
51838;SDS011;37886;53.174;6.368;2023-03-14T01:22:40;29.30;;;7.72;;
51838;SDS011;37886;53.174;6.368;2023-03-14T01:25:07;30.77;;;10.07;;
51838;SDS011;37886;53.174;6.368;2023-03-14T01:27:34;33.20;;;7.47;;
51838;SDS011;37886;53.174;6.368;2023-03-14T01:30:00;35.78;;;9.55;;
51838;SDS011;37886;53.174;6.368;2023-03-14T01:32:25;24.60;;;7.70;;
51838;SDS011;37886;53.174;6.368;2023-03-14T01:34:51;29.48;;;7.28;;
51838;SDS011;37886;53.174;6.368;2023-03-14T01:37:17;29.08;;;7.68;;
51838;SDS011;37886;53.174;6.368;2023-03-14T01:39:43;29.27;;;7.68;;
51838;SDS011;37886;53.174;6.368;2023-03-14T01:42:08;31.35;;;11.35;;
51838;SDS011;37886;53.174;6.368;2023-03-14T01:44:47;27.15;;;7.15;;
51838;SDS011;37886;53.174;6.368;2023-03-14T01:47:13;28.58;;;15.27;;
51838;SDS011;37886;53.174;6.368;2023-03-14T01:49:38;26.10;;;7.03;;
51838;SDS011;37886;53.174;6.368;2023-03-14T01:52:16;22.95;;;13.27;;
51838;SDS011;37886;53.174;6.368;2023-03-14T01:54:54;30.48;;;7.07;;
51838;SDS011;37886;53.174;6.368;2023-03-14T01:59:59;27.35;;;11.40;;
51838;SDS011;37886;53.174;6.368;2023-03-14T02:02:36;25.33;;;8.02;;
51838;SDS011;37886;53.174;6.368;2023-03-14T02:05:02;25.90;;;8.88;;
51838;SDS011;37886;53.174;6.368;2023-03-14T02:07:40;26.90;;;7.25;;
51838;SDS011;37886;53.174;6.368;2023-03-14T02:10:14;25.35;;;8.15;;
51838;SDS011;37886;53.174;6.368;2023-03-14T02:12:41;23.15;;;6.93;;
51838;SDS011;37886;53.174;6.368;2023-03-14T02:15:07;22.75;;;7.22;;
51838;SDS011;37886;53.174;6.368;2023-03-14T02:17:33;25.00;;;6.57;;
51838;SDS011;37886;53.174;6.368;2023-03-14T02:22:33;22.83;;;6.45;;
51838;SDS011;37886;53.174;6.368;2023-03-14T02:27:35;19.27;;;6.60;;
51838;SDS011;37886;53.174;6.368;2023-03-14T02:30:03;22.45;;;7.30;;
51838;SDS011;37886;53.174;6.368;2023-03-14T02:32:32;28.88;;;6.18;;
51838;SDS011;37886;53.174;6.368;2023-03-14T02:35:00;23.33;;;6.35;;
51838;SDS011;37886;53.174;6.368;2023-03-14T02:37:36;27.50;;;7.75;;
51838;SDS011;37886;53.174;6.368;2023-03-14T02:40:06;27.27;;;7.70;;
51838;SDS011;37886;53.174;6.368;2023-03-14T02:42:33;23.95;;;6.88;;
51838;SDS011;37886;53.174;6.368;2023-03-14T02:47:34;26.77;;;7.10;;
51838;SDS011;37886;53.174;6.368;2023-03-14T02:50:06;24.02;;;7.18;;
51838;SDS011;37886;53.174;6.368;2023-03-14T02:52:38;27.17;;;7.13;;
51838;SDS011;37886;53.174;6.368;2023-03-14T02:55:04;24.38;;;6.65;;
51838;SDS011;37886;53.174;6.368;2023-03-14T02:57:30;21.73;;;8.27;;
51838;SDS011;37886;53.174;6.368;2023-03-14T02:59:59;22.75;;;6.60;;
51838;SDS011;37886;53.174;6.368;2023-03-14T03:02:26;30.03;;;7.73;;
51838;SDS011;37886;53.174;6.368;2023-03-14T03:04:52;23.13;;;7.40;;
51838;SDS011;37886;53.174;6.368;2023-03-14T03:07:18;28.30;;;9.73;;
51838;SDS011;37886;53.174;6.368;2023-03-14T03:09:44;26.05;;;12.10;;
51838;SDS011;37886;53.174;6.368;2023-03-14T03:12:10;27.58;;;10.35;;
51838;SDS011;37886;53.174;6.368;2023-03-14T03:14:36;29.92;;;9.18;;
51838;SDS011;37886;53.174;6.368;2023-03-14T03:17:03;28.05;;;9.88;;
51838;SDS011;37886;53.174;6.368;2023-03-14T03:19:29;25.55;;;9.25;;
51838;SDS011;37886;53.174;6.368;2023-03-14T03:21:55;37.10;;;26.33;;
51838;SDS011;37886;53.174;6.368;2023-03-14T03:24:21;26.92;;;9.07;;
51838;SDS011;37886;53.174;6.368;2023-03-14T03:26:47;25.38;;;7.88;;
51838;SDS011;37886;53.174;6.368;2023-03-14T03:29:12;28.35;;;8.50;;
51838;SDS011;37886;53.174;6.368;2023-03-14T03:31:38;39.30;;;10.10;;
51838;SDS011;37886;53.174;6.368;2023-03-14T03:34:04;31.40;;;9.00;;
51838;SDS011;37886;53.174;6.368;2023-03-14T03:36:30;31.58;;;15.05;;
51838;SDS011;37886;53.174;6.368;2023-03-14T03:38:55;33.20;;;8.75;;
51838;SDS011;37886;53.174;6.368;2023-03-14T03:41:21;31.52;;;9.95;;
51838;SDS011;37886;53.174;6.368;2023-03-14T03:43:46;38.72;;;10.48;;
51838;SDS011;37886;53.174;6.368;2023-03-14T03:46:12;40.72;;;9.98;;
51838;SDS011;37886;53.174;6.368;2023-03-14T03:48:38;45.90;;;11.10;;
51838;SDS011;37886;53.174;6.368;2023-03-14T03:51:04;46.17;;;10.32;;
51838;SDS011;37886;53.174;6.368;2023-03-14T03:53:30;41.25;;;9.77;;
51838;SDS011;37886;53.174;6.368;2023-03-14T03:55:55;44.78;;;10.73;;
51838;SDS011;37886;53.174;6.368;2023-03-14T03:58:21;40.47;;;10.13;;
51838;SDS011;37886;53.174;6.368;2023-03-14T04:00:46;49.10;;;10.52;;
51838;SDS011;37886;53.174;6.368;2023-03-14T04:03:12;35.60;;;8.25;;
51838;SDS011;37886;53.174;6.368;2023-03-14T04:05:38;40.40;;;10.18;;
51838;SDS011;37886;53.174;6.368;2023-03-14T04:08:03;36.45;;;13.48;;
51838;SDS011;37886;53.174;6.368;2023-03-14T04:10:29;42.63;;;13.32;;
51838;SDS011;37886;53.174;6.368;2023-03-14T04:12:58;42.40;;;9.60;;
51838;SDS011;37886;53.174;6.368;2023-03-14T04:15:24;41.40;;;10.25;;
51838;SDS011;37886;53.174;6.368;2023-03-14T04:17:50;49.45;;;11.88;;
51838;SDS011;37886;53.174;6.368;2023-03-14T04:20:15;39.00;;;9.65;;
51838;SDS011;37886;53.174;6.368;2023-03-14T04:22:41;50.20;;;10.65;;
51838;SDS011;37886;53.174;6.368;2023-03-14T04:25:07;46.40;;;10.95;;
51838;SDS011;37886;53.174;6.368;2023-03-14T04:27:33;42.67;;;11.23;;
51838;SDS011;37886;53.174;6.368;2023-03-14T04:29:58;40.47;;;13.60;;
51838;SDS011;37886;53.174;6.368;2023-03-14T04:32:24;39.15;;;11.45;;
51838;SDS011;37886;53.174;6.368;2023-03-14T04:34:50;40.40;;;12.45;;
51838;SDS011;37886;53.174;6.368;2023-03-14T04:37:15;47.10;;;14.13;;
51838;SDS011;37886;53.174;6.368;2023-03-14T04:39:41;41.88;;;14.43;;
51838;SDS011;37886;53.174;6.368;2023-03-14T04:42:07;41.00;;;14.48;;
51838;SDS011;37886;53.174;6.368;2023-03-14T04:44:32;39.83;;;14.52;;
51838;SDS011;37886;53.174;6.368;2023-03-14T04:46:58;41.85;;;13.27;;
51838;SDS011;37886;53.174;6.368;2023-03-14T04:49:24;37.33;;;14.35;;
51838;SDS011;37886;53.174;6.368;2023-03-14T04:51:49;39.75;;;15.48;;
51838;SDS011;37886;53.174;6.368;2023-03-14T04:54:16;39.30;;;16.20;;
51838;SDS011;37886;53.174;6.368;2023-03-14T04:56:42;36.65;;;15.82;;
51838;SDS011;37886;53.174;6.368;2023-03-14T04:59:08;44.53;;;20.65;;
51838;SDS011;37886;53.174;6.368;2023-03-14T05:01:34;40.50;;;18.52;;
51838;SDS011;37886;53.174;6.368;2023-03-14T05:04:00;35.50;;;17.65;;
51838;SDS011;37886;53.174;6.368;2023-03-14T05:06:26;38.38;;;18.45;;
51838;SDS011;37886;53.174;6.368;2023-03-14T05:08:52;45.42;;;20.85;;
51838;SDS011;37886;53.174;6.368;2023-03-14T05:11:17;38.00;;;17.33;;
51838;SDS011;37886;53.174;6.368;2023-03-14T05:13:43;41.28;;;19.10;;
51838;SDS011;37886;53.174;6.368;2023-03-14T05:16:09;38.38;;;16.75;;
51838;SDS011;37886;53.174;6.368;2023-03-14T05:18:36;26.98;;;14.23;;
51838;SDS011;37886;53.174;6.368;2023-03-14T05:21:02;31.95;;;17.10;;
51838;SDS011;37886;53.174;6.368;2023-03-14T05:23:28;23.95;;;13.27;;
51838;SDS011;37886;53.174;6.368;2023-03-14T05:25:54;28.30;;;13.48;;
51838;SDS011;37886;53.174;6.368;2023-03-14T05:28:20;26.25;;;14.38;;
51838;SDS011;37886;53.174;6.368;2023-03-14T05:30:46;23.88;;;13.30;;
51838;SDS011;37886;53.174;6.368;2023-03-14T05:33:12;19.77;;;13.07;;
51838;SDS011;37886;53.174;6.368;2023-03-14T05:35:37;24.23;;;13.70;;
51838;SDS011;37886;53.174;6.368;2023-03-14T05:38:03;21.88;;;12.95;;
51838;SDS011;37886;53.174;6.368;2023-03-14T05:40:29;22.60;;;13.00;;
51838;SDS011;37886;53.174;6.368;2023-03-14T05:42:54;19.42;;;12.45;;
51838;SDS011;37886;53.174;6.368;2023-03-14T05:45:20;17.98;;;10.23;;
51838;SDS011;37886;53.174;6.368;2023-03-14T05:47:46;17.55;;;11.98;;
51838;SDS011;37886;53.174;6.368;2023-03-14T05:50:12;21.92;;;12.70;;
51838;SDS011;37886;53.174;6.368;2023-03-14T05:52:37;20.95;;;12.13;;
51838;SDS011;37886;53.174;6.368;2023-03-14T05:55:03;19.73;;;10.65;;
51838;SDS011;37886;53.174;6.368;2023-03-14T05:57:29;17.05;;;9.68;;
51838;SDS011;37886;53.174;6.368;2023-03-14T05:59:55;17.52;;;10.32;;
51838;SDS011;37886;53.174;6.368;2023-03-14T06:02:21;16.90;;;9.82;;
51838;SDS011;37886;53.174;6.368;2023-03-14T06:04:46;16.15;;;9.70;;
51838;SDS011;37886;53.174;6.368;2023-03-14T06:07:12;19.17;;;17.13;;
51838;SDS011;37886;53.174;6.368;2023-03-14T06:09:38;15.70;;;9.70;;
51838;SDS011;37886;53.174;6.368;2023-03-14T06:12:04;19.60;;;10.32;;
51838;SDS011;37886;53.174;6.368;2023-03-14T06:14:30;19.73;;;17.50;;
51838;SDS011;37886;53.174;6.368;2023-03-14T06:16:56;20.58;;;18.05;;
51838;SDS011;37886;53.174;6.368;2023-03-14T06:19:24;18.08;;;9.40;;
51838;SDS011;37886;53.174;6.368;2023-03-14T06:21:50;12.90;;;6.32;;
51838;SDS011;37886;53.174;6.368;2023-03-14T06:24:16;10.65;;;5.90;;
51838;SDS011;37886;53.174;6.368;2023-03-14T06:26:42;18.10;;;5.97;;
51838;SDS011;37886;53.174;6.368;2023-03-14T06:29:08;13.30;;;6.50;;
51838;SDS011;37886;53.174;6.368;2023-03-14T06:31:34;25.88;;;6.50;;
51838;SDS011;37886;53.174;6.368;2023-03-14T06:34:00;30.02;;;6.75;;
51838;SDS011;37886;53.174;6.368;2023-03-14T06:36:25;24.85;;;5.90;;
51838;SDS011;37886;53.174;6.368;2023-03-14T06:38:51;22.20;;;6.38;;
51838;SDS011;37886;53.174;6.368;2023-03-14T06:41:17;21.83;;;7.20;;
51838;SDS011;37886;53.174;6.368;2023-03-14T06:43:42;23.00;;;7.00;;
51838;SDS011;37886;53.174;6.368;2023-03-14T06:46:08;28.48;;;7.05;;
51838;SDS011;37886;53.174;6.368;2023-03-14T06:48:34;18.05;;;6.57;;
51838;SDS011;37886;53.174;6.368;2023-03-14T06:51:00;18.45;;;6.63;;
51838;SDS011;37886;53.174;6.368;2023-03-14T06:53:25;16.95;;;5.57;;
51838;SDS011;37886;53.174;6.368;2023-03-14T06:55:51;17.75;;;6.00;;
51838;SDS011;37886;53.174;6.368;2023-03-14T06:58:20;22.83;;;5.63;;
51838;SDS011;37886;53.174;6.368;2023-03-14T07:00:45;17.00;;;5.53;;
51838;SDS011;37886;53.174;6.368;2023-03-14T07:03:11;22.13;;;7.10;;
51838;SDS011;37886;53.174;6.368;2023-03-14T07:05:38;15.77;;;4.93;;
51838;SDS011;37886;53.174;6.368;2023-03-14T07:08:05;19.33;;;4.70;;
51838;SDS011;37886;53.174;6.368;2023-03-14T07:10:32;16.52;;;4.78;;
51838;SDS011;37886;53.174;6.368;2023-03-14T07:12:58;21.15;;;4.72;;
51838;SDS011;37886;53.174;6.368;2023-03-14T07:15:24;8.48;;;5.00;;
51838;SDS011;37886;53.174;6.368;2023-03-14T07:17:50;16.23;;;5.28;;
51838;SDS011;37886;53.174;6.368;2023-03-14T07:20:16;15.57;;;4.97;;
51838;SDS011;37886;53.174;6.368;2023-03-14T07:22:42;9.02;;;4.70;;
51838;SDS011;37886;53.174;6.368;2023-03-14T07:25:07;14.05;;;5.00;;
51838;SDS011;37886;53.174;6.368;2023-03-14T07:27:36;8.60;;;4.75;;
51838;SDS011;37886;53.174;6.368;2023-03-14T07:30:02;10.23;;;4.47;;
51838;SDS011;37886;53.174;6.368;2023-03-14T07:32:28;5.68;;;4.13;;
51838;SDS011;37886;53.174;6.368;2023-03-14T07:34:54;5.78;;;4.75;;
51838;SDS011;37886;53.174;6.368;2023-03-14T07:37:20;7.68;;;4.70;;
51838;SDS011;37886;53.174;6.368;2023-03-14T07:39:45;14.18;;;4.93;;
51838;SDS011;37886;53.174;6.368;2023-03-14T07:42:11;9.43;;;4.20;;
51838;SDS011;37886;53.174;6.368;2023-03-14T07:44:37;12.23;;;4.80;;
51838;SDS011;37886;53.174;6.368;2023-03-14T07:47:02;11.25;;;4.95;;
51838;SDS011;37886;53.174;6.368;2023-03-14T07:49:28;15.00;;;4.20;;
51838;SDS011;37886;53.174;6.368;2023-03-14T07:51:54;14.88;;;4.60;;
51838;SDS011;37886;53.174;6.368;2023-03-14T07:54:20;15.65;;;4.85;;
51838;SDS011;37886;53.174;6.368;2023-03-14T07:56:45;16.58;;;5.43;;
51838;SDS011;37886;53.174;6.368;2023-03-14T07:59:11;12.85;;;4.63;;
51838;SDS011;37886;53.174;6.368;2023-03-14T08:01:37;15.55;;;4.88;;
51838;SDS011;37886;53.174;6.368;2023-03-14T08:04:03;14.57;;;5.18;;
51838;SDS011;37886;53.174;6.368;2023-03-14T08:06:29;11.88;;;4.15;;
51838;SDS011;37886;53.174;6.368;2023-03-14T08:08:55;14.95;;;5.10;;
51838;SDS011;37886;53.174;6.368;2023-03-14T08:11:20;13.50;;;4.78;;
51838;SDS011;37886;53.174;6.368;2023-03-14T08:13:46;13.90;;;4.55;;
51838;SDS011;37886;53.174;6.368;2023-03-14T08:16:15;19.27;;;4.72;;
51838;SDS011;37886;53.174;6.368;2023-03-14T08:18:42;12.48;;;5.20;;
51838;SDS011;37886;53.174;6.368;2023-03-14T08:21:08;10.30;;;4.35;;
51838;SDS011;37886;53.174;6.368;2023-03-14T08:23:34;13.73;;;4.95;;
51838;SDS011;37886;53.174;6.368;2023-03-14T08:26:00;9.27;;;5.32;;
51838;SDS011;37886;53.174;6.368;2023-03-14T08:28:26;13.98;;;4.93;;
51838;SDS011;37886;53.174;6.368;2023-03-14T08:30:58;15.73;;;5.13;;
51838;SDS011;37886;53.174;6.368;2023-03-14T08:33:26;12.52;;;4.05;;
51838;SDS011;37886;53.174;6.368;2023-03-14T08:35:54;11.57;;;4.72;;
51838;SDS011;37886;53.174;6.368;2023-03-14T08:38:25;13.90;;;5.47;;
51838;SDS011;37886;53.174;6.368;2023-03-14T08:41:00;14.48;;;4.55;;
51838;SDS011;37886;53.174;6.368;2023-03-14T08:43:27;13.98;;;4.25;;
51838;SDS011;37886;53.174;6.368;2023-03-14T08:45:57;17.88;;;5.43;;
51838;SDS011;37886;53.174;6.368;2023-03-14T08:48:23;16.88;;;5.28;;
51838;SDS011;37886;53.174;6.368;2023-03-14T08:50:49;27.90;;;6.90;;
51838;SDS011;37886;53.174;6.368;2023-03-14T08:53:15;22.88;;;6.13;;
51838;SDS011;37886;53.174;6.368;2023-03-14T08:55:40;18.83;;;6.05;;
51838;SDS011;37886;53.174;6.368;2023-03-14T08:58:06;30.88;;;6.38;;
51838;SDS011;37886;53.174;6.368;2023-03-14T09:00:32;33.33;;;6.57;;
51838;SDS011;37886;53.174;6.368;2023-03-14T09:02:57;21.88;;;6.45;;
51838;SDS011;37886;53.174;6.368;2023-03-14T09:05:23;34.20;;;7.20;;
51838;SDS011;37886;53.174;6.368;2023-03-14T09:07:49;26.10;;;7.47;;
51838;SDS011;37886;53.174;6.368;2023-03-14T09:10:14;29.33;;;6.75;;
51838;SDS011;37886;53.174;6.368;2023-03-14T09:12:40;28.17;;;6.25;;
51838;SDS011;37886;53.174;6.368;2023-03-14T09:15:06;27.60;;;6.63;;
51838;SDS011;37886;53.174;6.368;2023-03-14T09:17:32;27.95;;;7.47;;
51838;SDS011;37886;53.174;6.368;2023-03-14T09:19:58;38.78;;;9.25;;
51838;SDS011;37886;53.174;6.368;2023-03-14T09:22:24;30.80;;;7.32;;
51838;SDS011;37886;53.174;6.368;2023-03-14T09:24:50;38.97;;;8.25;;
51838;SDS011;37886;53.174;6.368;2023-03-14T09:27:15;32.92;;;7.10;;
51838;SDS011;37886;53.174;6.368;2023-03-14T09:29:41;27.65;;;7.18;;
51838;SDS011;37886;53.174;6.368;2023-03-14T09:32:07;30.48;;;8.02;;
51838;SDS011;37886;53.174;6.368;2023-03-14T09:34:33;30.27;;;8.63;;
51838;SDS011;37886;53.174;6.368;2023-03-14T09:36:59;26.95;;;7.03;;
51838;SDS011;37886;53.174;6.368;2023-03-14T09:39:25;34.83;;;7.78;;
51838;SDS011;37886;53.174;6.368;2023-03-14T09:41:51;29.95;;;7.22;;
51838;SDS011;37886;53.174;6.368;2023-03-14T09:44:33;27.25;;;7.65;;
51838;SDS011;37886;53.174;6.368;2023-03-14T09:47:07;34.00;;;8.02;;
51838;SDS011;37886;53.174;6.368;2023-03-14T09:49:37;27.65;;;7.13;;
51838;SDS011;37886;53.174;6.368;2023-03-14T09:52:11;29.70;;;6.90;;
51838;SDS011;37886;53.174;6.368;2023-03-14T09:54:50;36.88;;;7.75;;
51838;SDS011;37886;53.174;6.368;2023-03-14T09:57:19;35.85;;;10.27;;
51838;SDS011;37886;53.174;6.368;2023-03-14T09:59:49;34.55;;;7.57;;
51838;SDS011;37886;53.174;6.368;2023-03-14T10:02:18;28.60;;;9.60;;
51838;SDS011;37886;53.174;6.368;2023-03-14T10:04:46;25.77;;;8.23;;
51838;SDS011;37886;53.174;6.368;2023-03-14T10:07:13;28.40;;;8.05;;
51838;SDS011;37886;53.174;6.368;2023-03-14T10:09:43;24.92;;;7.32;;
51838;SDS011;37886;53.174;6.368;2023-03-14T10:12:09;31.80;;;8.32;;
51838;SDS011;37886;53.174;6.368;2023-03-14T10:14:37;21.08;;;7.40;;
51838;SDS011;37886;53.174;6.368;2023-03-14T10:17:11;24.48;;;7.30;;
51838;SDS011;37886;53.174;6.368;2023-03-14T10:19:50;30.88;;;10.07;;
51838;SDS011;37886;53.174;6.368;2023-03-14T10:22:20;32.33;;;8.20;;
51838;SDS011;37886;53.174;6.368;2023-03-14T10:24:54;24.77;;;8.05;;
51838;SDS011;37886;53.174;6.368;2023-03-14T10:27:29;28.33;;;10.90;;
51838;SDS011;37886;53.174;6.368;2023-03-14T10:30:00;25.95;;;9.55;;
51838;SDS011;37886;53.174;6.368;2023-03-14T10:32:46;22.40;;;8.07;;
51838;SDS011;37886;53.174;6.368;2023-03-14T10:37:55;25.17;;;9.15;;
51838;SDS011;37886;53.174;6.368;2023-03-14T10:40:33;21.67;;;7.85;;
51838;SDS011;37886;53.174;6.368;2023-03-14T10:43:04;30.15;;;8.88;;
51838;SDS011;37886;53.174;6.368;2023-03-14T10:45:32;22.13;;;10.43;;
51838;SDS011;37886;53.174;6.368;2023-03-14T10:48:22;21.33;;;10.20;;
51838;SDS011;37886;53.174;6.368;2023-03-14T10:51:03;27.33;;;9.80;;
51838;SDS011;37886;53.174;6.368;2023-03-14T10:53:46;28.35;;;9.32;;
51838;SDS011;37886;53.174;6.368;2023-03-14T10:56:13;18.42;;;10.07;;
51838;SDS011;37886;53.174;6.368;2023-03-14T10:58:44;24.77;;;8.68;;
51838;SDS011;37886;53.174;6.368;2023-03-14T11:01:17;19.05;;;8.73;;
51838;SDS011;37886;53.174;6.368;2023-03-14T11:23:13;15.60;;;8.80;;
51838;SDS011;37886;53.174;6.368;2023-03-14T11:28:39;20.40;;;8.93;;
51838;SDS011;37886;53.174;6.368;2023-03-14T11:31:14;16.80;;;8.55;;
51838;SDS011;37886;53.174;6.368;2023-03-14T11:36:41;14.27;;;9.88;;
51838;SDS011;37886;53.174;6.368;2023-03-14T11:39:29;17.67;;;10.57;;
51838;SDS011;37886;53.174;6.368;2023-03-14T11:42:04;19.23;;;9.13;;
51838;SDS011;37886;53.174;6.368;2023-03-14T11:44:34;15.15;;;9.85;;
51838;SDS011;37886;53.174;6.368;2023-03-14T11:50:13;15.02;;;9.13;;
51838;SDS011;37886;53.174;6.368;2023-03-14T11:53:25;17.45;;;11.38;;
51838;SDS011;37886;53.174;6.368;2023-03-14T11:55:38;16.55;;;9.65;;
51838;SDS011;37886;53.174;6.368;2023-03-14T12:00:40;15.55;;;9.48;;
51838;SDS011;37886;53.174;6.368;2023-03-14T12:03:22;12.38;;;9.80;;
51838;SDS011;37886;53.174;6.368;2023-03-14T12:06:16;21.92;;;10.45;;
51838;SDS011;37886;53.174;6.368;2023-03-14T12:09:01;12.57;;;9.45;;
51838;SDS011;37886;53.174;6.368;2023-03-14T12:11:48;16.58;;;9.90;;
51838;SDS011;37886;53.174;6.368;2023-03-14T12:14:23;14.25;;;9.90;;
51838;SDS011;37886;53.174;6.368;2023-03-14T12:16:53;19.83;;;11.40;;
51838;SDS011;37886;53.174;6.368;2023-03-14T12:21:51;14.43;;;10.60;;
51838;SDS011;37886;53.174;6.368;2023-03-14T12:24:23;17.67;;;9.60;;
51838;SDS011;37886;53.174;6.368;2023-03-14T12:26:58;21.55;;;9.50;;
51838;SDS011;37886;53.174;6.368;2023-03-14T12:29:25;13.15;;;10.25;;
51838;SDS011;37886;53.174;6.368;2023-03-14T12:32:07;17.70;;;10.18;;
51838;SDS011;37886;53.174;6.368;2023-03-14T12:34:43;15.93;;;9.80;;
51838;SDS011;37886;53.174;6.368;2023-03-14T12:40:46;17.40;;;10.75;;
51838;SDS011;37886;53.174;6.368;2023-03-14T12:43:24;24.05;;;10.15;;
51838;SDS011;37886;53.174;6.368;2023-03-14T12:51:47;13.80;;;10.25;;
51838;SDS011;37886;53.174;6.368;2023-03-14T12:56:52;19.98;;;10.32;;
51838;SDS011;37886;53.174;6.368;2023-03-14T13:02:28;15.07;;;11.30;;
51838;SDS011;37886;53.174;6.368;2023-03-14T13:05:14;14.50;;;10.20;;
51838;SDS011;37886;53.174;6.368;2023-03-14T13:15:34;18.00;;;9.95;;
51838;SDS011;37886;53.174;6.368;2023-03-14T13:18:14;13.00;;;10.30;;
51838;SDS011;37886;53.174;6.368;2023-03-14T13:23:21;14.50;;;9.45;;
51838;SDS011;37886;53.174;6.368;2023-03-14T13:25:49;9.73;;;8.80;;
51838;SDS011;37886;53.174;6.368;2023-03-14T13:28:15;12.57;;;11.32;;
51838;SDS011;37886;53.174;6.368;2023-03-14T13:30:45;14.02;;;9.25;;
51838;SDS011;37886;53.174;6.368;2023-03-14T13:33:16;13.15;;;9.20;;
51838;SDS011;37886;53.174;6.368;2023-03-14T13:38:22;16.17;;;9.10;;
51838;SDS011;37886;53.174;6.368;2023-03-14T13:40:50;15.85;;;11.68;;
51838;SDS011;37886;53.174;6.368;2023-03-14T13:45:56;17.20;;;9.85;;
51838;SDS011;37886;53.174;6.368;2023-03-14T13:48:28;14.48;;;10.15;;
51838;SDS011;37886;53.174;6.368;2023-03-14T13:51:00;20.55;;;10.73;;
51838;SDS011;37886;53.174;6.368;2023-03-14T13:53:29;11.30;;;9.93;;
51838;SDS011;37886;53.174;6.368;2023-03-14T13:55:55;11.48;;;9.88;;
51838;SDS011;37886;53.174;6.368;2023-03-14T13:58:22;12.30;;;9.65;;
51838;SDS011;37886;53.174;6.368;2023-03-14T14:00:54;15.20;;;9.63;;
51838;SDS011;37886;53.174;6.368;2023-03-14T14:03:39;11.02;;;9.57;;
51838;SDS011;37886;53.174;6.368;2023-03-14T14:06:16;11.68;;;9.52;;
51838;SDS011;37886;53.174;6.368;2023-03-14T14:14:41;19.63;;;9.95;;
51838;SDS011;37886;53.174;6.368;2023-03-14T14:17:13;20.88;;;9.15;;
51838;SDS011;37886;53.174;6.368;2023-03-14T14:19:43;14.32;;;9.15;;
51838;SDS011;37886;53.174;6.368;2023-03-14T14:22:10;11.93;;;10.20;;
51838;SDS011;37886;53.174;6.368;2023-03-14T14:24:37;14.05;;;9.98;;
51838;SDS011;37886;53.174;6.368;2023-03-14T14:27:13;18.15;;;11.10;;
51838;SDS011;37886;53.174;6.368;2023-03-14T14:29:42;18.67;;;11.77;;
51838;SDS011;37886;53.174;6.368;2023-03-14T14:37:24;19.70;;;11.70;;
51838;SDS011;37886;53.174;6.368;2023-03-14T14:39:52;17.70;;;10.40;;
51838;SDS011;37886;53.174;6.368;2023-03-14T14:42:20;16.73;;;11.15;;
51838;SDS011;37886;53.174;6.368;2023-03-14T14:44:49;19.42;;;11.45;;
51838;SDS011;37886;53.174;6.368;2023-03-14T14:47:20;14.05;;;10.43;;
51838;SDS011;37886;53.174;6.368;2023-03-14T14:49:48;15.80;;;12.07;;
51838;SDS011;37886;53.174;6.368;2023-03-14T14:52:31;22.20;;;9.98;;
51838;SDS011;37886;53.174;6.368;2023-03-14T14:54:58;14.05;;;10.38;;
51838;SDS011;37886;53.174;6.368;2023-03-14T14:57:26;16.20;;;11.40;;
51838;SDS011;37886;53.174;6.368;2023-03-14T15:00:06;15.75;;;10.50;;
51838;SDS011;37886;53.174;6.368;2023-03-14T15:02:40;16.40;;;10.18;;
51838;SDS011;37886;53.174;6.368;2023-03-14T15:05:14;11.55;;;10.05;;
51838;SDS011;37886;53.174;6.368;2023-03-14T15:07:45;19.67;;;10.18;;
51838;SDS011;37886;53.174;6.368;2023-03-14T15:10:12;23.52;;;11.63;;
51838;SDS011;37886;53.174;6.368;2023-03-14T15:12:40;16.67;;;11.20;;
51838;SDS011;37886;53.174;6.368;2023-03-14T15:15:06;14.35;;;10.00;;
51838;SDS011;37886;53.174;6.368;2023-03-14T15:17:33;19.75;;;11.55;;
51838;SDS011;37886;53.174;6.368;2023-03-14T15:20:01;18.08;;;10.75;;
51838;SDS011;37886;53.174;6.368;2023-03-14T15:22:32;14.95;;;11.13;;
51838;SDS011;37886;53.174;6.368;2023-03-14T15:24:57;13.00;;;10.65;;
51838;SDS011;37886;53.174;6.368;2023-03-14T15:27:23;21.55;;;10.70;;
51838;SDS011;37886;53.174;6.368;2023-03-14T15:29:49;15.90;;;11.40;;
51838;SDS011;37886;53.174;6.368;2023-03-14T15:32:16;15.55;;;10.80;;
51838;SDS011;37886;53.174;6.368;2023-03-14T15:34:43;17.48;;;11.73;;
51838;SDS011;37886;53.174;6.368;2023-03-14T15:37:12;15.95;;;10.10;;
51838;SDS011;37886;53.174;6.368;2023-03-14T15:39:43;19.30;;;11.77;;
51838;SDS011;37886;53.174;6.368;2023-03-14T15:42:09;18.58;;;10.75;;
51838;SDS011;37886;53.174;6.368;2023-03-14T15:44:35;18.17;;;11.02;;
51838;SDS011;37886;53.174;6.368;2023-03-14T15:47:01;17.60;;;10.45;;
51838;SDS011;37886;53.174;6.368;2023-03-14T15:49:28;21.38;;;10.30;;
51838;SDS011;37886;53.174;6.368;2023-03-14T15:51:54;17.25;;;10.68;;
51838;SDS011;37886;53.174;6.368;2023-03-14T15:54:19;18.73;;;11.38;;
51838;SDS011;37886;53.174;6.368;2023-03-14T15:56:45;18.40;;;10.85;;
51838;SDS011;37886;53.174;6.368;2023-03-14T15:59:11;19.27;;;11.50;;
51838;SDS011;37886;53.174;6.368;2023-03-14T16:01:37;19.73;;;11.77;;
51838;SDS011;37886;53.174;6.368;2023-03-14T16:04:02;19.58;;;11.15;;
51838;SDS011;37886;53.174;6.368;2023-03-14T16:06:29;21.75;;;11.07;;